Sterling/Rock Falls, Illinois
Current Conditions -  °F | °C
As of 6:35 PM on Sunday 21 Dec 2014 (Local Time) from KSQI Reporting Station
Overcast Overcast  
Wind Chill: -2°   Ceiling: 3700
Heat Index:   Visibility: 8mi
Dew Point: -2°   Wind: 10mph
Humidity: 75%   Direction: 140°SE
Pressure: 29.99"   Gusts: NA
Location:  41.73°N, 89.68°W
Report Text: KSQI 220035Z 14009KT 8SM OVC037 02/M02 A2999 RMK AO1
Loading
Personal Weather Stations






























Interactive Weather Map New forecast layout! Learn more

10-Day Weather Forecast

Advertisements
Track Severe Weather on mobile